Lapeer, MI

2:47 PM EDT on June 23, 2017 (GMT -0400)
Lapeer

Weather History for KD95 - January, 2014

Change the Weather History Date:

Monday, January 27, 2014

  Actual Average (KFNT) Record (KFNT)
Temperature  
Mean Temperature 6 °F -  
Max Temperature 15 °F 28 °F 56 °F (2002)
Min Temperature -5 °F 14 °F -11 °F (2003)
Degree Days  
Heating Degree Days 60    
Moisture  
Dew Point -4 °F    
Average Humidity 66    
Maximum Humidity 90    
Minimum Humidity 50    
Precipitation  
Precipitation 0.00 in - - ()
Sea Level Pressure  
Sea Level Pressure 29.90 in    
Wind  
Wind Speed 12 mph (WNW)    
Max Wind Speed 18 mph    
Max Gust Speed 30 mph    
Visibility 9 miles    
Events Snow    
Averages and records for this station are not official NWS values.
T = Trace of Precipitation, MM = Missing Value Source: NWS Daily Summary

Daily Weather History Graph

Daily Weather History Graph

Search for Another Location

Airport or City:

Trip Planner

Search our weather history database for the weather conditions in past years. The results will help you decide how hot, cold, wet, or windy it might be!

Date:

Astronomy

Jan. 27, 2014 Rise Set
Actual Time 7:53 AM EST 5:38 PM EST
Civil Twilight 7:22 AM EST 6:09 PM EST
Nautical Twilight 6:48 AM EST 6:43 PM EST
Astronomical Twilight 6:14 AM EST 7:17 PM EST
Moon 4:34 AM EST (1/27) 2:22 PM EST (1/27)
Length of Visible Light 10h 46m
Length of Day
9h 45m
Waning Crescent, 15% of the Moon is Illuminated
Jan 27
Waning Crescent
Jan 30
New
Feb 6
First Quarter
Feb 14
Full
Feb 22
Last Quarter

Hourly Weather History & Observations

Time (EST) Temp. Windchill Dew Point Humidity Pressure Visibility Wind Dir Wind Speed Gust Speed Precip Events Conditions
12:14 AM 15.8 °F 2.7 °F 13.3 °F 90% 29.41 in 1.5 mi NW 11.5 mph 20.7 mph N/A Snow Light Snow
12:33 AM 15.1 °F 2.5 °F 12.2 °F 88% 29.41 in 2.0 mi WNW 10.4 mph 25.3 mph N/A Snow Light Snow
12:54 AM 15.1 °F 1.1 °F 10.6 °F 82% 29.41 in 4.0 mi WNW 12.7 mph 23.0 mph N/A Snow Light Snow
1:14 AM 14.9 °F 1.6 °F 10.4 °F 82% 29.42 in 4.0 mi WNW 11.5 mph 21.9 mph N/A Snow Light Snow
1:33 AM 14.5 °F 0.5 °F 10.9 °F 86% 29.43 in 2.0 mi West 12.7 mph 21.9 mph N/A Snow Light Snow
1:54 AM 14.0 °F -0.2 °F 10.6 °F 86% 29.45 in 5.0 mi WNW 12.7 mph 20.7 mph N/A Snow Light Snow
2:14 AM 14.0 °F -2.5 °F 9.0 °F 80% 29.47 in 4.0 mi WNW 17.3 mph 29.9 mph N/A Snow Light Snow
2:33 AM 13.1 °F -2.0 °F 2.7 °F 63% 29.48 in 5.0 mi WNW 13.8 mph 26.5 mph N/A   Haze
2:54 AM 11.8 °F -3.6 °F 1.9 °F 65% 29.51 in 7.0 mi WNW 13.8 mph 21.9 mph N/A   Scattered Clouds
3:14 AM 10.9 °F -7.0 °F 2.1 °F 68% 29.53 in 5.0 mi WNW 18.4 mph 26.5 mph N/A   Haze
3:33 AM 10.4 °F -6.6 °F 1.6 °F 68% 29.55 in 10.0 mi WNW 16.1 mph 20.7 mph N/A   Clear
3:54 AM 10.0 °F -4.5 °F 1.4 °F 68% 29.57 in 7.0 mi WNW 11.5 mph 26.5 mph N/A   Clear
4:13 AM 9.5 °F -5.9 °F 1.0 °F 69% 29.59 in 10.0 mi WNW 12.7 mph 19.6 mph N/A   Scattered Clouds
4:34 AM 9.1 °F -7.7 °F 1.4 °F 71% 29.61 in 7.0 mi WNW 15.0 mph 25.3 mph N/A   Scattered Clouds
4:54 AM 8.6 °F -6.3 °F 1.2 °F 72% 29.63 in 7.0 mi WNW 11.5 mph 19.6 mph N/A   Clear
5:13 AM 8.6 °F -8.9 °F 1.2 °F 72% 29.65 in 10.0 mi WNW 16.1 mph 24.2 mph N/A   Scattered Clouds
5:34 AM 8.6 °F -5.5 °F 1.2 °F 72% 29.68 in 10.0 mi WNW 10.4 mph 21.9 mph N/A   Mostly Cloudy
5:53 AM 8.2 °F -7.5 °F 0.1 °F 70% 29.71 in 10.0 mi WNW 12.7 mph 23.0 mph N/A   Scattered Clouds
6:14 AM 7.7 °F -10.1 °F -1.1 °F 67% 29.73 in 7.0 mi WNW 16.1 mph 23.0 mph N/A   Clear
6:34 AM 7.5 °F -8.4 °F -1.7 °F 66% 29.75 in 10.0 mi WNW 12.7 mph 23.0 mph N/A   Clear
6:53 AM 7.0 °F -10.4 °F -2.0 °F 67% 29.78 in 10.0 mi West 15.0 mph 19.6 mph N/A   Clear
7:14 AM 6.6 °F -8.0 °F -2.0 °F 68% 29.80 in 10.0 mi West 10.4 mph 24.2 mph N/A   Clear
7:34 AM 5.9 °F -11.2 °F -2.2 °F 69% 29.82 in 10.0 mi West 13.8 mph 19.6 mph N/A   Clear
7:53 AM 5.5 °F -11.6 °F -3.1 °F 68% 29.83 in 10.0 mi WNW 13.8 mph 20.7 mph N/A   Clear
8:14 AM 5.0 °F -13.0 °F -4.0 °F 66% 29.86 in 10.0 mi West 15.0 mph 23.0 mph N/A   Clear
8:34 AM 5.0 °F -10.8 °F -4.4 °F 65% 29.88 in 10.0 mi West 11.5 mph 19.6 mph N/A   Clear
8:53 AM 5.4 °F -11.1 °F -5.1 °F 62% 29.90 in 10.0 mi West 12.7 mph 20.7 mph N/A   Clear
9:14 AM 5.7 °F -8.2 °F -5.8 °F 59% 29.91 in 10.0 mi West 9.2 mph 18.4 mph N/A   Clear
9:34 AM 5.9 °F -10.5 °F -6.3 °F 57% 29.92 in 10.0 mi WNW 12.7 mph 23.0 mph N/A   Clear
9:53 AM 6.3 °F -11.3 °F -6.2 °F 57% 29.93 in 10.0 mi WNW 15.0 mph 25.3 mph N/A   Clear
10:14 AM 6.4 °F -9.0 °F -6.0 °F 57% 29.94 in 10.0 mi WNW 11.5 mph 23.0 mph N/A   Clear
10:33 AM 6.8 °F -11.8 °F -6.2 °F 55% 29.95 in 10.0 mi NW 17.3 mph 23.0 mph N/A   Clear
10:54 AM 7.2 °F -11.4 °F -7.8 °F 51% 29.96 in 10.0 mi NW 17.3 mph 25.3 mph N/A   Clear
11:14 AM 6.6 °F -11.5 °F -8.0 °F 51% 29.98 in 7.0 mi WNW 16.1 mph 23.0 mph N/A   Clear
11:34 AM 7.2 °F -9.6 °F -6.3 °F 54% 29.98 in 10.0 mi NW 13.8 mph 21.9 mph N/A   Scattered Clouds
11:54 AM 7.5 °F -7.7 °F -6.5 °F 53% 29.98 in 10.0 mi NW 11.5 mph 20.7 mph N/A   Mostly Cloudy
12:13 PM 8.8 °F -5.3 °F -5.8 °F 52% 29.98 in 7.0 mi WNW 10.4 mph 17.3 mph N/A   Overcast
12:34 PM 7.2 °F -8.1 °F -6.0 °F 55% 29.99 in 10.0 mi West 11.5 mph - N/A   Overcast
12:54 PM 7.2 °F -9.6 °F -4.5 °F 59% 29.99 in 10.0 mi WNW 13.8 mph 23.0 mph N/A   Overcast
1:13 PM 6.4 °F -9.0 °F -4.5 °F 61% 29.99 in 7.0 mi WNW 11.5 mph 18.4 mph N/A   Overcast
1:34 PM 6.4 °F -7.3 °F -3.8 °F 63% 29.98 in 10.0 mi NW 9.2 mph - N/A   Overcast
1:53 PM 6.8 °F -9.3 °F -5.8 °F 56% 29.99 in 10.0 mi NW 12.7 mph 20.7 mph N/A   Overcast
2:13 PM 6.8 °F -9.3 °F -8.1 °F 51% 29.99 in 10.0 mi West 12.7 mph 19.6 mph N/A   Overcast
2:33 PM 7.3 °F -8.6 °F -6.9 °F 52% 30.00 in 10.0 mi West 12.7 mph 23.0 mph N/A   Overcast
2:54 PM 7.5 °F -9.7 °F -7.8 °F 50% 30.00 in 10.0 mi WNW 15.0 mph 19.6 mph N/A   Overcast
3:13 PM 6.6 °F -10.2 °F -6.7 °F 54% 30.01 in 10.0 mi West 13.8 mph 20.7 mph N/A   Overcast
3:34 PM 6.6 °F -10.2 °F -6.3 °F 55% 30.01 in 10.0 mi WNW 13.8 mph 20.7 mph N/A   Overcast
3:54 PM 6.4 °F -11.7 °F -6.0 °F 57% 30.03 in 7.0 mi WNW 16.1 mph 20.7 mph N/A Snow Light Snow
4:13 PM 5.7 °F -10.7 °F -5.6 °F 60% 30.04 in 10.0 mi West 12.7 mph 19.6 mph N/A   Overcast
4:34 PM 5.4 °F -10.4 °F -5.8 °F 60% 30.05 in 10.0 mi NW 11.5 mph 20.7 mph N/A   Overcast
4:53 PM 4.1 °F -10.2 °F -1.7 °F 77% 30.06 in 7.0 mi West 9.2 mph - N/A   Mostly Cloudy
5:14 PM 4.1 °F -12.0 °F -9.0 °F 55% 30.06 in 10.0 mi West 11.5 mph 20.7 mph N/A   Scattered Clouds
5:34 PM 3.4 °F -5.9 °F -4.2 °F 71% 30.06 in 10.0 mi WNW 4.6 mph - N/A   Mostly Cloudy
5:53 PM 2.8 °F -8.2 °F -3.3 °F 76% 30.07 in 10.0 mi West 5.8 mph - N/A   Mostly Cloudy
6:14 PM 2.7 °F -13.8 °F -8.0 °F 61% 30.09 in 10.0 mi West 11.5 mph 20.7 mph N/A   Mostly Cloudy
6:34 PM 1.9 °F -14.7 °F -8.3 °F 62% 30.10 in 10.0 mi West 11.5 mph 16.1 mph N/A   Scattered Clouds
6:53 PM 1.2 °F -13.7 °F -8.5 °F 64% 30.11 in 10.0 mi WNW 9.2 mph - N/A   Scattered Clouds
7:14 PM 1.2 °F -14.7 °F -8.0 °F 65% 30.12 in 10.0 mi West 10.4 mph 17.3 mph N/A   Scattered Clouds
7:33 PM 0.5 °F -13.6 °F -8.5 °F 66% 30.13 in 10.0 mi WNW 8.1 mph - N/A   Clear
7:54 PM 0.1 °F -11.4 °F -8.7 °F 66% 30.15 in 10.0 mi WNW 5.8 mph 16.1 mph N/A   Clear
8:14 PM -0.8 °F -17.2 °F -8.5 °F 70% 30.16 in 10.0 mi West 10.4 mph - N/A   Clear
8:33 PM -0.9 °F -15.3 °F -9.6 °F 67% 30.16 in 10.0 mi WNW 8.1 mph - N/A   Clear
8:54 PM -1.7 °F -16.2 °F -9.6 °F 69% 30.17 in 10.0 mi West 8.1 mph - N/A   Clear
9:13 PM -2.2 °F -16.8 °F -9.6 °F 71% 30.18 in 10.0 mi West 8.1 mph - N/A   Clear
9:34 PM -2.6 °F -18.4 °F -9.6 °F 72% 30.19 in 10.0 mi West 9.2 mph - N/A   Clear
9:54 PM -2.6 °F -19.4 °F -10.3 °F 70% 30.19 in 10.0 mi West 10.4 mph - N/A   Clear
10:13 PM -3.1 °F -19.1 °F -10.5 °F 71% 30.20 in 10.0 mi West 9.2 mph - N/A   Clear
10:34 PM -3.5 °F -17.1 °F -10.5 °F 72% 30.20 in 10.0 mi West 6.9 mph - N/A   Clear
10:54 PM -4.0 °F -14.6 °F -10.5 °F 74% 30.21 in 10.0 mi West 4.6 mph - N/A   Clear
11:13 PM -4.4 °F -15.0 °F -10.5 °F 75% 30.21 in 10.0 mi West 4.6 mph - N/A   Clear
11:34 PM -4.7 °F -17.2 °F -10.5 °F 76% 30.22 in 10.0 mi WSW 5.8 mph - N/A   Clear
11:54 PM -5.1 °F -17.6 °F -11.0 °F 76% 30.22 in 10.0 mi West 5.8 mph - N/A   Clear